Flight Track Log - Related Links

Times and Time Zones

All times are in EDT time to prevent confusion due to time zone crossing. See the SWA1319 flight status page for this flight to view local times or setup timezone preferences in your user account.

Time Position Orientation Groundspeed Altitude Reporting Facility
EDT Latitude Longitude Course Direction KTS MPH feet Rate Location/Type
Tue 03:48:42 PM 32.9167 -96.9167 320° Northwest 232 267 3,800  Level Dallas / Fort Worth TRACON
Tue 03:49:48 PM 32.9667 -96.9833 312° West 268 308 7,100 2,767 Climbing Dallas / Fort Worth TRACON
Tue 03:51:55 PM 33.1292 -97.0464 342° North 288 331 12,700 2,182 Climbing Fort Worth Center
Tue 03:52:55 PM 33.2108 -97.0633 350° North 324 373 13,900 1,966 Climbing Fort Worth Center
Tue 03:53:00 PM 33.4251 -96.6583 16° North  Level FlightAware Approximate
Tue 03:53:54 PM 33.3256 -97.0828 352° North 370 426 16,600  Level Fort Worth Center
Tue 03:54:55 PM 33.4194 -97.1022 350° North 382 440 18,400 2,132 Climbing Fort Worth Center
Tue 03:55:55 PM 33.5406 -97.0994 North 387 445 20,900 2,150 Climbing Fort Worth Center
Tue 03:56:55 PM 33.6428 -97.0867 North 398 458 22,700 1,600 Climbing Fort Worth Center
Tue 03:57:55 PM 33.7597 -97.0711 North 411 473 24,100 1,500 Climbing Fort Worth Center
Tue 03:58:55 PM 33.8911 -97.0531 North 416 479 25,700 1,650 Climbing Fort Worth Center
Tue 03:59:55 PM 34.0081 -97.0378 North 428 493 27,400 1,350 Climbing Fort Worth Center
Tue 04:00:55 PM 34.1122 -97.0297 North 428 493 28,400 1,200 Climbing Fort Worth Center
Tue 04:01:55 PM 34.2375 -97.0117 North 423 487 29,800 1,350 Climbing Fort Worth Center
Tue 04:02:55 PM 34.3606 -96.9958 North 435 501 31,100 1,250 Climbing Fort Worth Center
Tue 04:03:55 PM 34.4814 -96.9450 19° North 441 507 32,300 1,250 Climbing Fort Worth Center
Tue 04:04:55 PM 34.6000 -96.8939 20° North 447 514 33,600 1,200 Climbing Fort Worth Center
Tue 04:05:55 PM 34.7186 -96.8450 19° North 452 520 34,700 700 Climbing Fort Worth Center
Tue 04:06:55 PM 34.8375 -96.7961 19° North 447 514 35,000 150 Climbing Fort Worth Center
Tue 04:07:55 PM 34.9581 -96.7447 19° North 447 514 35,000  Level Fort Worth Center
Tue 04:08:55 PM 35.0789 -96.6956 18° North 447 514 35,000  Level Fort Worth Center
Tue 04:10:29 PM 35.2661 -96.6147 19° North 458 527 35,000  Level Kansas City Center
Tue 04:11:33 PM 35.3858 -96.5639 19° North 460 529 35,000  Level Kansas City Center
Tue 04:12:34 PM 35.5308 -96.5025 19° North 461 531 35,000  Level Kansas City Center
Tue 04:13:35 PM 35.6522 -96.4522 19° North 462 532 35,000  Level Kansas City Center
Tue 04:14:38 PM 35.7739 -96.3997 19° North 464 534 35,000  Level Kansas City Center
Tue 04:15:39 PM 35.8908 -96.3517 18° North 466 536 35,000  Level Kansas City Center
Tue 04:16:40 PM 36.0167 -96.3183 12° North 460 529 35,000  Level Kansas City Center
Tue 04:17:44 PM 36.1678 -96.2800 12° North 459 528 35,000  Level Kansas City Center
Tue 04:18:45 PM 36.2942 -96.2478 12° North 458 527 35,000  Level Kansas City Center
Tue 04:19:46 PM 36.4206 -96.2153 12° North 459 528 35,000  Level Kansas City Center
Tue 04:21:00 PM 36.5522 -96.1719 15° North  Level FlightAware Approximate
Tue 04:21:50 PM 36.6756 -96.1308 15° North 468 539 35,000  Level Kansas City Center
Tue 04:22:52 PM 36.8028 -96.0911 14° North 468 539 35,000  Level Kansas City Center
Tue 04:23:55 PM 36.9306 -96.0497 15° North 469 540 35,000  Level Kansas City Center
Tue 04:24:56 PM 37.0581 -96.0083 15° North 469 540 35,000  Level Kansas City Center
Tue 04:26:00 PM 37.1733 -95.9676 16° North  Level FlightAware Approximate
Tue 04:27:01 PM 37.3386 -95.9156 16° North 471 542 35,000  Level Kansas City Center
Tue 04:28:02 PM 37.4669 -95.8725 15° North 472 543 35,000 -194 Level Kansas City Center
Tue 04:29:05 PM 37.5947 -95.8303 15° North 472 543 34,600 -1,584 Descending Kansas City Center
Tue 04:30:07 PM 37.7253 -95.7889 14° North 480 552 31,700 -2,544 Descending Kansas City Center
Tue 04:31:10 PM 37.8514 -95.7436 16° North 472 543 29,300 -2,304 Descending Kansas City Center
Tue 04:32:12 PM 37.9864 -95.7008 14° North 454 522 26,900 -2,164 Descending Kansas City Center
Tue 04:33:12 PM 38.0989 -95.6636 15° North 438 504 24,900 -2,032 Descending Kansas City Center
Tue 04:34:16 PM 38.2253 -95.6203 15° North 422 486 22,700 -1,968 Descending Kansas City Center
Tue 04:35:17 PM 38.3306 -95.5847 15° North 411 473 20,800 -1,951 Descending Kansas City Center
Tue 04:36:19 PM 38.4492 -95.5439 15° North 397 457 18,700 -1,854 Descending Kansas City Center
Tue 04:37:20 PM 38.5475 -95.5108 15° North 384 442 17,000 -1,887 Descending Kansas City Center
Tue 04:38:23 PM 38.6617 -95.4719 15° North 379 436 14,800 -1,968 Descending Kansas City Center
Tue 04:39:25 PM 38.7569 -95.4369 16° North 373 429 12,900 -1,810 Descending Kansas City Center
Tue 04:40:29 PM 38.8481 -95.3611 33° Northeast 357 411 11,000 -1,392 Descending Kansas City Center
Tue 04:41:30 PM 38.9006 -95.2686 54° Northeast 336 387 10,000 -934 Descending Kansas City Center
Tue 04:42:31 PM 38.9453 -95.1589 62° Northeast 311 358 9,100 -1,131 Descending Kansas City Center
Tue 04:43:32 PM 38.9794 -95.0739 63° Northeast 284 327 7,700 -1,306 Descending Kansas City Center
Tue 04:44:35 PM 39.0178 -94.9772 63° Northeast 274 315 6,400 -1,113 Descending Kansas City Center
Tue 04:45:36 PM 39.0492 -94.9008 62° Northeast 255 293 5,400 -1,248 Descending Kansas City Center
Tue 04:46:40 PM 39.0825 -94.8169 63° Northeast 239 275 3,800 -1,152 Descending Kansas City Center
Tue 04:47:41 PM 39.1306 -94.7775 32° Northeast 217 250 3,000 -387 Descending Kansas City Center
Tue 04:48:44 PM 39.1783 -94.7639 12° North 186 214 3,000 -194 Level Kansas City Center
Tue 04:49:45 PM 39.2242 -94.7500 13° North 153 176 2,600 -541 Descending Kansas City Center
Tue 04:50:46 PM 39.2586 -94.7400 13° North 134 154 1,900 -774 Descending Kansas City Center
Tue 04:51:49 PM 39.2967 -94.7275 14° North 126 145 1,000 -857 Descending Kansas City Center
Tue 04:53:00 PM 39.2976 -94.7139 67° East  Level Estimated

Login

Don't have an account? Register now (free) for customized features, flight alerts, and more!